Time;durP1;ratioP1;P1;durP2;ratioP2;P2;SDS_P1;SDS_P2;PMS_P1;PMS_P2;Temp;Humidity;BMP_temperature;BMP_pressure;BME280_temperature;BME280_humidity;BME280_pressure;Samples;Min_cycle;Max_cycle;Signal;HPM_P1;HPM_P2
2023/06/27 00:01:04;;;;;;;2.88;1.77;;;16.80;61.10;;;;;;6056173;23;20346;-74
2023/06/27 00:03:31;;;;;;;2.22;1.50;;;16.60;60.80;;;;;;6056078;23;20086;-76
2023/06/27 00:06:00;;;;;;;4.05;1.48;;;16.40;61.70;;;;;;6055622;23;20014;-76
2023/06/27 00:08:27;;;;;;;1.52;1.15;;;16.40;61.40;;;;;;6033171;23;20488;-76
2023/06/27 00:10:53;;;;;;;6.00;1.60;;;16.30;60.90;;;;;;6032407;23;20097;-76
2023/06/27 00:13:20;;;;;;;2.67;1.75;;;16.30;62.80;;;;;;6055428;23;20069;-76
2023/06/27 00:15:48;;;;;;;2.78;1.35;;;16.30;64.30;;;;;;6056830;23;20011;-76
2023/06/27 00:18:17;;;;;;;6.43;2.03;;;16.20;61.20;;;;;;6009771;23;20086;-76
2023/06/27 00:20:43;;;;;;;2.20;1.50;;;16.20;62.70;;;;;;6056774;23;20529;-80
2023/06/27 00:23:19;;;;;;;1.95;1.63;;;16.10;62.40;;;;;;6056386;23;20019;-80
2023/06/27 00:25:45;;;;;;;;;;;16.00;62.00;;;;;;6033115;23;20015;-80
2023/06/27 00:28:10;;;;;;;2.30;1.30;;;16.00;62.10;;;;;;6056083;23;20524;-80
2023/06/27 00:30:36;;;;;;;3.60;1.25;;;15.90;62.40;;;;;;6056137;23;20097;-80
2023/06/27 00:33:02;;;;;;;2.55;1.63;;;16.20;63.70;;;;;;6056108;23;20402;-80
2023/06/27 00:35:32;;;;;;;2.78;2.05;;;16.10;64.40;;;;;;6056244;23;20383;-80
2023/06/27 00:38:01;;;;;;;5.35;1.35;;;16.10;64.70;;;;;;6056079;23;20007;-80
2023/06/27 00:40:27;;;;;;;4.00;1.80;;;16.00;63.10;;;;;;6056472;23;20483;-80
2023/06/27 00:42:52;;;;;;;1.77;1.30;;;15.90;63.60;;;;;;6057016;23;20007;-80
2023/06/27 00:45:19;;;;;;;4.60;1.83;;;15.80;64.70;;;;;;6032531;23;20019;-80
2023/06/27 00:47:45;;;;;;;3.53;1.25;;;15.70;63.30;;;;;;6056747;23;20464;-80
2023/06/27 00:50:10;;;;;;;5.72;1.73;;;15.70;63.50;;;;;;6033138;23;20015;-80
2023/06/27 00:52:37;;;;;;;3.22;1.65;;;15.70;64.10;;;;;;6055640;23;20453;-80
2023/06/27 00:55:03;;;;;;;5.93;2.00;;;15.60;62.90;;;;;;6056315;23;20014;-80
2023/06/27 00:57:29;;;;;;;3.92;1.45;;;15.50;65.20;;;;;;6007548;23;20477;-80
2023/06/27 00:59:55;;;;;;;4.40;1.70;;;15.50;65.00;;;;;;6055858;23;20015;-81
2023/06/27 01:02:23;;;;;;;2.10;1.45;;;15.50;65.80;;;;;;6032203;23;20011;-81
2023/06/27 01:04:55;;;;;;;2.33;1.50;;;15.40;64.80;;;;;;6055458;23;20085;-80
2023/06/27 01:07:26;;;;;;;2.65;1.30;;;15.40;66.60;;;;;;6055822;23;20021;-80
2023/06/27 01:09:52;;;;;;;3.53;1.80;;;15.50;67.70;;;;;;6055246;23;20019;-81
2023/06/27 01:12:37;;;;;;;4.85;1.40;;;15.50;66.70;;;;;;6055571;23;20018;-78
2023/06/27 01:15:03;;;;;;;2.05;1.10;;;15.40;66.50;;;;;;6058783;23;20019;-79
2023/06/27 01:17:28;;;;;;;1.63;1.30;;;15.30;66.60;;;;;;6008716;23;20676;-79
2023/06/27 01:19:54;;;;;;;1.80;1.42;;;15.60;68.10;;;;;;6031211;23;20026;-80
2023/06/27 01:22:29;;;;;;;2.40;1.73;;;15.60;67.00;;;;;;6056234;23;20019;-80
2023/06/27 01:24:59;;;;;;;3.50;1.75;;;15.60;67.80;;;;;;6056009;23;20349;-80
2023/06/27 01:27:28;;;;;;;4.88;1.85;;;15.60;67.90;;;;;;6032888;23;20022;-80
2023/06/27 01:29:54;;;;;;;2.97;1.83;;;15.50;68.20;;;;;;6033154;23;20111;-80
2023/06/27 01:32:24;;;;;;;5.75;2.30;;;15.40;67.50;;;;;;6057918;23;20442;-79
2023/06/27 01:35:02;;;;;;;4.70;1.77;;;15.40;67.40;;;;;;6033506;23;20026;-79
2023/06/27 01:37:35;;;;;;;6.15;1.98;;;15.30;68.90;;;;;;6058542;23;20011;-79
2023/06/27 01:40:10;;;;;;;6.07;2.20;;;15.30;68.30;;;;;;6057266;23;20014;-79
2023/06/27 01:42:39;;;;;;;4.30;1.52;;;15.30;70.80;;;;;;6033993;23;20398;-79
2023/06/27 01:45:05;;;;;;;2.00;1.60;;;15.00;67.90;;;;;;6033430;23;20011;-80
2023/06/27 01:47:31;;;;;;;4.20;1.80;;;15.10;69.20;;;;;;6057356;23;20015;-79
2023/06/27 01:49:56;;;;;;;5.20;1.83;;;15.10;69.60;;;;;;6057250;23;20018;-79
2023/06/27 01:52:22;;;;;;;8.70;2.55;;;15.00;70.00;;;;;;6057031;23;20429;-80
2023/06/27 01:54:47;;;;;;;6.18;2.15;;;15.00;69.30;;;;;;6033481;23;20042;-80
2023/06/27 01:57:13;;;;;;;3.85;1.80;;;15.00;70.90;;;;;;6032604;23;20015;-80
2023/06/27 01:59:38;;;;;;;2.75;2.15;;;14.90;69.80;;;;;;6032312;23;20010;-79
2023/06/27 02:02:04;;;;;;;5.00;2.40;;;14.80;70.00;;;;;;6056731;23;20460;-80
2023/06/27 02:04:30;;;;;;;4.53;2.00;;;14.90;68.50;;;;;;6032881;23;20007;-80
2023/06/27 02:06:56;;;;;;;3.20;2.10;;;14.90;69.40;;;;;;6057296;23;20018;-79
2023/06/27 02:09:21;;;;;;;4.43;2.08;;;14.90;69.20;;;;;;6033452;23;20007;-80
2023/06/27 02:11:47;;;;;;;5.07;2.10;;;14.90;73.30;;;;;;6058064;23;20449;-80
2023/06/27 02:14:13;;;;;;;3.53;1.80;;;14.80;71.60;;;;;;6033480;23;20011;-79
2023/06/27 02:16:38;;;;;;;5.10;2.25;;;14.80;72.10;;;;;;6056912;23;20006;-79
2023/06/27 02:19:04;;;;;;;4.93;2.25;;;14.80;71.00;;;;;;6057497;23;20007;-80
2023/06/27 02:21:30;;;;;;;3.05;1.63;;;14.70;71.40;;;;;;6058320;23;20505;-80
2023/06/27 02:23:55;;;;;;;3.42;1.60;;;14.90;71.20;;;;;;6033436;23;20450;-79
2023/06/27 02:26:21;;;;;;;4.60;2.08;;;14.90;71.00;;;;;;6056740;23;20007;-80
2023/06/27 02:28:46;;;;;;;3.72;1.80;;;14.90;70.40;;;;;;6033804;23;20105;-80
2023/06/27 02:31:12;;;;;;;5.80;2.30;;;14.80;71.70;;;;;;6032952;23;20093;-80
2023/06/27 02:33:37;;;;;;;5.28;3.10;;;14.60;70.30;;;;;;6032106;23;20046;-82
2023/06/27 02:36:03;;;;;;;5.00;2.40;;;14.60;72.20;;;;;;6055872;23;20022;-79
2023/06/27 02:38:30;;;;;;;5.35;2.28;;;14.60;70.20;;;;;;6056369;23;20014;-80
2023/06/27 02:40:55;;;;;;;5.75;2.30;;;14.60;70.10;;;;;;6056659;23;20457;-79
2023/06/27 02:43:21;;;;;;;5.93;2.30;;;14.50;70.10;;;;;;6044943;23;20015;-78
2023/06/27 02:45:46;;;;;;;3.53;2.42;;;14.50;71.00;;;;;;6033386;23;20453;-79
2023/06/27 02:48:12;;;;;;;2.88;2.22;;;14.40;72.80;;;;;;6033464;23;20410;-80
2023/06/27 02:50:37;;;;;;;4.65;2.55;;;14.30;74.30;;;;;;6032373;23;20015;-79
2023/06/27 02:53:03;;;;;;;6.38;2.63;;;14.40;71.80;;;;;;6057125;23;20018;-80
2023/06/27 02:55:28;;;;;;;4.95;2.60;;;14.50;72.70;;;;;;6057893;23;20341;-79
2023/06/27 02:57:57;;;;;;;5.38;2.47;;;14.50;72.10;;;;;;6055170;23;20011;-79
2023/06/27 03:00:22;;;;;;;5.45;1.80;;;14.50;73.40;;;;;;6056500;23;20042;-81
2023/06/27 03:02:48;;;;;;;6.00;2.63;;;14.50;71.40;;;;;;6056947;23;20007;-80
2023/06/27 03:05:14;;;;;;;8.07;3.17;;;14.50;73.50;;;;;;6056427;23;20022;-79
2023/06/27 03:07:39;;;;;;;3.13;2.38;;;14.50;72.30;;;;;;6032372;23;20026;-79
2023/06/27 03:10:05;;;;;;;5.88;2.22;;;14.60;73.20;;;;;;6056609;23;20130;-79
2023/06/27 03:12:31;;;;;;;6.05;2.70;;;14.60;72.30;;;;;;6056273;23;20041;-79
2023/06/27 03:14:58;;;;;;;3.28;2.25;;;14.60;72.10;;;;;;6057983;23;20069;-79
2023/06/27 03:17:24;;;;;;;3.40;1.73;;;14.60;71.60;;;;;;6033196;23;20015;-79
2023/06/27 03:19:50;;;;;;;5.20;1.48;;;14.60;71.40;;;;;;6056007;23;20069;-77
2023/06/27 03:22:15;;;;;;;3.20;1.70;;;14.70;71.50;;;;;;6033486;23;20011;-79
2023/06/27 03:24:41;;;;;;;11.98;3.05;;;14.70;71.10;;;;;;6056141;23;20014;-79
2023/06/27 03:27:06;;;;;;;4.25;2.30;;;14.70;72.00;;;;;;6052658;23;20463;-79
2023/06/27 03:29:32;;;;;;;6.13;2.30;;;14.80;72.60;;;;;;6056413;23;20007;-79
2023/06/27 03:31:57;;;;;;;4.70;2.22;;;15.10;72.30;;;;;;6055870;23;20014;-80
2023/06/27 03:34:23;;;;;;;5.35;2.00;;;15.20;72.70;;;;;;6056911;23;20086;-75
2023/06/27 03:36:48;;;;;;;1.95;1.27;;;15.20;72.10;;;;;;6033325;23;20015;-75
2023/06/27 03:39:14;;;;;;;3.92;1.92;;;15.30;70.20;;;;;;6032572;23;20386;-75
2023/06/27 03:41:39;;;;;;;4.53;2.00;;;15.30;71.90;;;;;;6032618;23;20007;-75
2023/06/27 03:44:05;;;;;;;5.38;1.80;;;15.10;73.20;;;;;;6031882;23;20489;-75
2023/06/27 03:46:31;;;;;;;3.78;1.73;;;14.90;72.10;;;;;;6032194;23;20067;-75
2023/06/27 03:48:58;;;;;;;3.78;2.00;;;14.90;72.30;;;;;;6056038;23;20166;-76
2023/06/27 03:51:24;;;;;;;5.72;2.25;;;15.00;71.50;;;;;;6033366;23;20011;-76
2023/06/27 03:53:50;;;;;;;4.80;1.60;;;15.00;71.60;;;;;;6031249;23;20098;-76
2023/06/27 03:56:15;;;;;;;4.10;1.98;;;15.00;71.30;;;;;;6032112;23;20015;-75
2023/06/27 03:58:41;;;;;;;2.83;2.03;;;15.10;72.90;;;;;;6053688;23;20014;-75
2023/06/27 04:01:06;;;;;;;5.13;1.63;;;15.10;71.70;;;;;;6031662;23;20007;-75
2023/06/27 04:03:32;;;;;;;11.02;2.80;;;15.30;72.30;;;;;;6055529;23;20010;-75
2023/06/27 04:05:58;;;;;;;7.90;2.05;;;15.30;71.70;;;;;;6054711;23;20485;-75
2023/06/27 04:08:23;;;;;;;4.60;2.20;;;15.50;71.70;;;;;;6055872;23;20022;-76
2023/06/27 04:10:49;;;;;;;4.88;2.20;;;15.40;72.30;;;;;;6056198;23;20034;-75
2023/06/27 04:13:14;;;;;;;5.40;1.80;;;15.50;72.00;;;;;;6055134;23;20014;-75
2023/06/27 04:15:40;;;;;;;5.47;2.33;;;15.50;71.60;;;;;;6054866;23;20085;-75
2023/06/27 04:18:06;;;;;;;5.00;1.90;;;15.40;72.90;;;;;;6055015;23;20449;-75
2023/06/27 04:20:32;;;;;;;12.23;2.47;;;15.50;72.70;;;;;;6055329;23;20022;-75
2023/06/27 04:22:57;;;;;;;6.90;1.80;;;15.60;72.90;;;;;;6055592;23;20089;-76
2023/06/27 04:25:23;;;;;;;8.05;2.25;;;15.60;72.30;;;;;;6056846;23;20014;-75
2023/06/27 04:27:48;;;;;;;5.30;2.00;;;15.50;73.00;;;;;;6056225;23;20384;-75
2023/06/27 04:30:14;;;;;;;3.50;1.95;;;15.60;72.20;;;;;;6055383;23;20030;-75
2023/06/27 04:32:39;;;;;;;7.40;2.50;;;15.70;73.00;;;;;;6031594;23;21478;-75
2023/06/27 04:35:06;;;;;;;5.10;2.03;;;15.60;73.30;;;;;;6032202;23;20037;-75
2023/06/27 04:37:32;;;;;;;6.55;1.77;;;15.50;72.30;;;;;;6057696;23;20014;-75
2023/06/27 04:39:57;;;;;;;9.38;2.67;;;15.60;72.40;;;;;;6057700;23;20014;-75
2023/06/27 04:42:23;;;;;;;4.20;2.10;;;15.70;72.90;;;;;;6033799;23;20019;-75
2023/06/27 04:44:49;;;;;;;6.50;2.10;;;15.90;73.60;;;;;;6034859;23;20011;-75
2023/06/27 04:47:14;;;;;;;6.07;2.28;;;16.00;73.50;;;;;;6058557;23;20015;-76
2023/06/27 04:49:40;;;;;;;9.65;2.22;;;16.10;73.80;;;;;;6059242;23;20023;-75
2023/06/27 04:52:06;;;;;;;6.90;2.50;;;16.30;73.80;;;;;;6057551;23;20093;-75
2023/06/27 04:54:31;;;;;;;2.40;1.75;;;16.40;72.60;;;;;;6059333;23;20017;-75
2023/06/27 04:56:57;;;;;;;3.33;1.60;;;16.60;72.60;;;;;;6057603;23;20074;-75
2023/06/27 04:59:22;;;;;;;4.57;2.20;;;16.70;72.10;;;;;;6033711;23;20038;-75
2023/06/27 05:01:48;;;;;;;7.63;2.70;;;16.80;71.50;;;;;;6057829;23;20078;-75
2023/06/27 05:04:13;;;;;;;7.38;2.17;;;16.90;71.90;;;;;;6059622;23;20002;-75
2023/06/27 05:06:39;;;;;;;6.63;2.58;;;17.00;71.00;;;;;;6058884;23;20421;-75
2023/06/27 05:09:05;;;;;;;6.30;2.03;;;17.00;71.20;;;;;;6035389;23;20517;-75
2023/06/27 05:11:30;;;;;;;6.97;3.30;;;17.00;70.70;;;;;;6059316;23;20504;-75
2023/06/27 05:13:56;;;;;;;5.43;2.13;;;17.20;71.30;;;;;;6059209;23;20054;-75
2023/06/27 05:16:22;;;;;;;3.63;1.90;;;17.30;70.90;;;;;;6034794;23;20454;-75
2023/06/27 05:18:48;;;;;;;8.05;2.45;;;17.30;70.60;;;;;;6059955;23;20089;-75
2023/06/27 05:21:13;;;;;;;8.02;2.47;;;17.40;70.90;;;;;;6058823;23;20529;-75
2023/06/27 05:23:39;;;;;;;6.15;2.47;;;17.50;70.10;;;;;;6059130;23;20017;-76
2023/06/27 05:26:05;;;;;;;7.25;2.22;;;17.50;70.30;;;;;;6058523;23;20026;-76
2023/06/27 05:28:30;;;;;;;6.28;2.60;;;17.50;71.20;;;;;;6059053;23;20390;-76
2023/06/27 05:30:57;;;;;;;3.35;1.55;;;17.50;71.50;;;;;;6059048;23;20014;-76
2023/06/27 05:33:22;;;;;;;6.07;2.75;;;17.60;70.70;;;;;;6059052;23;20017;-76
2023/06/27 05:35:48;;;;;;;4.15;2.00;;;17.70;70.80;;;;;;6059600;23;20015;-76
2023/06/27 05:38:14;;;;;;;4.85;2.08;;;17.80;70.50;;;;;;6035110;23;20090;-75
2023/06/27 05:40:39;;;;;;;5.57;2.30;;;17.90;70.40;;;;;;6059052;23;20023;-76
2023/06/27 05:43:05;;;;;;;6.68;2.40;;;17.90;70.00;;;;;;6059091;23;20018;-76
2023/06/27 05:45:30;;;;;;;8.27;1.90;;;17.90;70.20;;;;;;6059400;23;20014;-76
2023/06/27 05:47:56;;;;;;;7.68;2.00;;;18.00;69.80;;;;;;6059046;23;20338;-76
2023/06/27 05:50:21;;;;;;;4.40;1.70;;;18.10;69.90;;;;;;6059021;23;20346;-76
2023/06/27 05:52:47;;;;;;;4.78;1.85;;;18.00;69.50;;;;;;6059105;23;20046;-76
2023/06/27 05:55:13;;;;;;;8.13;1.38;;;18.00;70.10;;;;;;6059379;23;20014;-76
2023/06/27 05:57:38;;;;;;;5.28;2.00;;;18.00;70.50;;;;;;6034666;23;20015;-75
2023/06/27 06:00:10;;;;;;;7.25;2.10;;;18.00;70.20;;;;;;6060975;23;20014;-75
2023/06/27 06:02:37;;;;;;;5.65;2.38;;;18.10;69.90;;;;;;6058946;23;20007;-76
2023/06/27 06:05:03;;;;;;;8.27;2.28;;;18.10;69.90;;;;;;6059192;23;20082;-76
2023/06/27 06:07:28;;;;;;;4.55;1.75;;;18.10;69.20;;;;;;6060403;23;20013;-75
2023/06/27 06:09:54;;;;;;;7.85;2.10;;;18.10;69.60;;;;;;6034950;23;20354;-75
2023/06/27 06:12:20;;;;;;;5.60;2.03;;;18.10;70.60;;;;;;6059007;23;20018;-75
2023/06/27 06:14:45;;;;;;;6.85;2.25;;;18.30;70.20;;;;;;6058665;23;20097;-75
2023/06/27 06:17:11;;;;;;;6.78;2.53;;;18.30;70.20;;;;;;6058458;23;20022;-77
2023/06/27 06:19:36;;;;;;;4.97;2.33;;;18.40;70.00;;;;;;6035035;23;20013;-75
2023/06/27 06:22:02;;;;;;;9.00;2.45;;;18.60;70.10;;;;;;6058460;23;20011;-75
2023/06/27 06:24:27;;;;;;;6.30;2.28;;;18.70;70.00;;;;;;6059049;23;20011;-76
2023/06/27 06:26:53;;;;;;;7.60;2.45;;;19.00;69.80;;;;;;6034943;23;20011;-76
2023/06/27 06:29:18;;;;;;;7.35;2.40;;;19.10;69.80;;;;;;6060111;23;20086;-76
2023/06/27 06:31:45;;;;;;;14.18;4.00;;;19.30;69.20;;;;;;6056958;23;20026;-76
2023/06/27 06:34:11;;;;;;;4.30;2.28;;;19.50;69.00;;;;;;6057613;23;20502;-76
2023/06/27 06:36:37;;;;;;;7.68;2.03;;;19.90;70.10;;;;;;6034632;23;20048;-75
2023/06/27 06:39:02;;;;;;;7.22;2.03;;;20.10;68.90;;;;;;6058315;23;20011;-75
2023/06/27 06:41:28;;;;;;;7.15;2.70;;;20.40;67.90;;;;;;6034619;23;20014;-75
2023/06/27 06:43:53;;;;;;;7.35;2.90;;;20.60;68.80;;;;;;6058704;23;20410;-76
2023/06/27 06:46:19;;;;;;;5.13;2.40;;;20.90;69.70;;;;;;6035147;23;20036;-76
2023/06/27 06:48:45;;;;;;;5.03;2.33;;;21.20;70.00;;;;;;6034802;23;20474;-76
2023/06/27 06:51:10;;;;;;;8.00;3.15;;;21.50;69.00;;;;;;6034673;23;20086;-75
2023/06/27 06:53:36;;;;;;;4.28;2.38;;;21.60;66.50;;;;;;6058291;23;20022;-75
2023/06/27 06:56:02;;;;;;;6.20;2.70;;;21.70;65.60;;;;;;6058500;23;20011;-75
2023/06/27 06:58:27;;;;;;;17.08;4.82;;;22.00;66.40;;;;;;6034212;23;20011;-75
2023/06/27 07:00:53;;;;;;;8.48;2.95;;;22.30;69.00;;;;;;6060090;23;20019;-75
2023/06/27 07:03:18;;;;;;;7.05;2.55;;;22.50;67.80;;;;;;6058871;23;20025;-75
2023/06/27 07:05:44;;;;;;;12.45;4.55;;;22.50;65.30;;;;;;6057118;23;20014;-75
2023/06/27 07:08:09;;;;;;;11.73;3.50;;;22.70;67.40;;;;;;6058292;23;20014;-75
2023/06/27 07:10:36;;;;;;;9.82;3.35;;;23.00;67.10;;;;;;6058128;23;20010;-75
2023/06/27 07:13:01;;;;;;;6.45;2.70;;;23.20;66.50;;;;;;6058449;23;20038;-76
2023/06/27 07:15:28;;;;;;;10.23;2.90;;;23.40;66.80;;;;;;6057567;23;20339;-76
2023/06/27 07:17:54;;;;;;;10.73;3.60;;;23.40;64.40;;;;;;6034285;23;20021;-76
2023/06/27 07:20:20;;;;;;;12.30;2.63;;;23.60;66.40;;;;;;6034449;23;20478;-76
2023/06/27 07:22:46;;;;;;;9.25;3.17;;;24.00;65.20;;;;;;6057923;23;20014;-76
2023/06/27 07:25:12;;;;;;;9.63;2.97;;;23.90;65.60;;;;;;6057971;23;20019;-75
2023/06/27 07:27:37;;;;;;;9.13;3.20;;;24.30;64.40;;;;;;6033795;23;20142;-76
2023/06/27 07:30:03;;;;;;;8.27;2.90;;;24.60;65.00;;;;;;6057989;23;20010;-76
2023/06/27 07:32:29;;;;;;;9.38;2.97;;;25.00;64.60;;;;;;6034562;23;20038;-75
2023/06/27 07:34:54;;;;;;;10.77;3.50;;;25.00;64.40;;;;;;6034370;23;20007;-74
2023/06/27 07:37:20;;;;;;;15.13;4.43;;;24.80;61.10;;;;;;6058568;23;20007;-75
2023/06/27 07:39:46;;;;;;;12.18;3.05;;;25.00;65.00;;;;;;6033457;23;20014;-75
2023/06/27 07:42:11;;;;;;;10.13;4.10;;;25.50;62.80;;;;;;6057812;23;20011;-75
2023/06/27 07:44:37;;;;;;;19.05;4.35;;;26.20;62.70;;;;;;6033738;23;20442;-75
2023/06/27 07:47:02;;;;;;;17.33;5.35;;;26.40;61.50;;;;;;6056465;23;20420;-76
2023/06/27 07:49:30;;;;;;;9.52;3.42;;;26.70;61.60;;;;;;6057731;23;20450;-75
2023/06/27 07:51:56;;;;;;;13.05;3.70;;;26.90;60.50;;;;;;6057703;23;20010;-75
2023/06/27 07:54:24;;;;;;;11.13;3.33;;;27.00;61.00;;;;;;6058018;23;20523;-75
2023/06/27 07:56:49;;;;;;;11.70;3.42;;;27.20;60.60;;;;;;6057437;23;20442;-76
2023/06/27 07:59:16;;;;;;;8.38;3.05;;;27.50;60.10;;;;;;6033767;23;20058;-75
2023/06/27 08:01:42;;;;;;;10.48;2.72;;;27.60;58.80;;;;;;6057646;23;20015;-75
2023/06/27 08:04:07;;;;;;;15.10;3.53;;;27.60;58.90;;;;;;6057525;23;20019;-75
2023/06/27 08:06:33;;;;;;;11.23;3.08;;;27.90;59.20;;;;;;6057210;23;20015;-75
2023/06/27 08:08:58;;;;;;;10.10;2.58;;;28.20;58.40;;;;;;6057569;23;20007;-75
2023/06/27 08:11:24;;;;;;;7.55;3.00;;;28.30;57.50;;;;;;6033718;23;20114;-76
2023/06/27 08:13:50;;;;;;;12.35;3.22;;;27.80;57.00;;;;;;6058228;23;20054;-74
2023/06/27 08:16:15;;;;;;;9.27;2.83;;;28.00;57.70;;;;;;6033096;23;20022;-75
2023/06/27 08:18:41;;;;;;;14.55;4.05;;;28.00;56.70;;;;;;6056955;23;20022;-75
2023/06/27 08:21:06;;;;;;;10.90;3.30;;;28.30;57.90;;;;;;6057357;23;20023;-75
2023/06/27 08:23:32;;;;;;;11.25;3.15;;;28.90;57.10;;;;;;6057863;23;20011;-76
2023/06/27 08:25:58;;;;;;;10.23;2.75;;;28.40;54.80;;;;;;6057478;23;20014;-76
2023/06/27 08:28:23;;;;;;;9.48;2.83;;;28.60;57.70;;;;;;6059116;23;20018;-76
2023/06/27 08:30:49;;;;;;;9.80;2.65;;;28.70;57.20;;;;;;6058597;23;20369;-76
2023/06/27 08:33:14;;;;;;;10.30;2.95;;;29.50;54.40;;;;;;6057512;23;20446;-76
2023/06/27 08:35:40;;;;;;;13.30;4.57;;;29.50;55.20;;;;;;6033239;23;20018;-76
2023/06/27 08:38:05;;;;;;;7.82;3.05;;;30.00;54.10;;;;;;6035161;23;20021;-76
2023/06/27 08:40:33;;;;;;;15.80;4.15;;;30.10;53.70;;;;;;6059740;23;20090;-75
2023/06/27 08:42:58;;;;;;;12.82;3.33;;;29.40;52.50;;;;;;6058937;23;20442;-75
2023/06/27 08:45:24;;;;;;;11.30;4.07;;;29.50;54.40;;;;;;6060736;23;20014;-76
2023/06/27 08:47:49;;;;;;;11.65;3.70;;;30.00;53.90;;;;;;6035142;23;20050;-75
2023/06/27 08:50:15;;;;;;;9.07;3.03;;;30.00;53.40;;;;;;6059027;23;20022;-76
2023/06/27 08:52:55;;;;;;;14.43;5.63;;;30.30;52.50;;;;;;6059256;23;20074;-75
2023/06/27 08:56:04;;;;;;;10.13;3.80;;;30.50;52.60;;;;;;6034773;23;20010;-76
2023/06/27 08:58:46;;;;;;;9.35;3.53;;;30.90;52.00;;;;;;6048798;23;20744;-76
2023/06/27 09:01:12;;;;;;;10.65;4.32;;;31.20;50.30;;;;;;6057180;23;20015;-76
2023/06/27 09:03:37;;;;;;;6.72;2.97;;;31.40;49.80;;;;;;6033332;23;20014;-76
2023/06/27 09:06:05;;;;;;;8.07;2.90;;;31.60;48.70;;;;;;6024169;23;20145;-76
2023/06/27 09:08:33;;;;;;;13.68;3.90;;;31.60;48.20;;;;;;6035655;23;20011;-76
2023/06/27 09:10:59;;;;;;;7.35;2.33;;;31.50;47.90;;;;;;6035267;23;20476;-76
2023/06/27 09:13:25;;;;;;;5.22;1.90;;;31.60;48.30;;;;;;6059417;23;20512;-76
2023/06/27 09:15:50;;;;;;;9.07;2.95;;;32.10;47.00;;;;;;6034974;23;20010;-76
2023/06/27 09:18:16;;;;;;;6.45;2.80;;;32.30;47.00;;;;;;6059099;23;20015;-76
2023/06/27 09:20:41;;;;;;;6.78;2.60;;;32.40;47.00;;;;;;6034771;23;20365;-76
2023/06/27 09:23:07;;;;;;;12.10;3.42;;;32.10;47.40;;;;;;6058911;23;20066;-76
2023/06/27 09:25:33;;;;;;;5.88;1.98;;;32.30;47.10;;;;;;6034328;23;20030;-76
2023/06/27 09:28:12;;;;;;;5.50;2.08;;;32.30;46.80;;;;;;6060508;23;20015;-76
2023/06/27 09:30:38;;;;;;;5.82;2.15;;;31.90;46.50;;;;;;6013270;23;20070;-76
2023/06/27 09:33:03;;;;;;;4.80;1.95;;;32.20;46.50;;;;;;6059180;23;20011;-76
2023/06/27 09:35:31;;;;;;;6.35;2.13;;;32.30;45.80;;;;;;6035091;23;20015;-76
2023/06/27 09:38:06;;;;;;;7.80;1.90;;;32.10;46.40;;;;;;6035026;23;20026;-76
2023/06/27 09:40:34;;;;;;;6.57;2.17;;;32.00;45.70;;;;;;6035252;23;20022;-76
2023/06/27 09:42:59;;;;;;;5.85;1.98;;;31.90;46.10;;;;;;6034897;23;20029;-76
2023/06/27 09:45:29;;;;;;;4.53;2.20;;;31.40;46.50;;;;;;6058127;23;20524;-77
2023/06/27 09:47:55;;;;;;;3.50;1.60;;;31.50;46.80;;;;;;6033312;23;20074;-76
2023/06/27 09:50:30;;;;;;;7.97;2.33;;;31.30;46.60;;;;;;6057536;23;20065;-76
2023/06/27 09:53:00;;;;;;;;;;;31.30;46.80;;;;;;6009323;23;20046;-77
2023/06/27 09:55:25;;;;;;;7.07;2.30;;;31.20;46.50;;;;;;6055936;23;20248;-77
2023/06/27 09:57:51;;;;;;;7.03;2.10;;;31.50;46.90;;;;;;6056135;23;20043;-76
2023/06/27 10:00:18;;;;;;;6.63;2.10;;;31.60;46.60;;;;;;6056782;23;20061;-76
2023/06/27 10:02:50;;;;;;;9.88;2.28;;;31.20;46.40;;;;;;6056716;23;20011;-77
2023/06/27 10:05:16;;;;;;;3.08;1.75;;;31.20;46.50;;;;;;6032397;23;20022;-76
2023/06/27 10:07:43;;;;;;;4.80;1.70;;;31.30;46.00;;;;;;6055130;23;20011;-77
2023/06/27 10:10:09;;;;;;;4.45;1.63;;;31.00;46.40;;;;;;6032075;23;20027;-77
2023/06/27 10:12:34;;;;;;;4.43;1.45;;;30.90;46.10;;;;;;6056174;23;20079;-76
2023/06/27 10:15:00;;;;;;;5.22;1.45;;;30.80;45.90;;;;;;6031806;23;20030;-77
2023/06/27 10:17:27;;;;;;;5.78;1.45;;;30.50;46.00;;;;;;6032041;23;20442;-77
2023/06/27 10:19:53;;;;;;;12.48;2.05;;;30.40;46.00;;;;;;6033379;23;20346;-76
2023/06/27 10:22:19;;;;;;;6.10;1.73;;;30.20;46.00;;;;;;6032704;23;20018;-77
2023/06/27 10:24:46;;;;;;;7.43;1.92;;;30.20;46.20;;;;;;6057220;23;20522;-76
2023/06/27 10:27:13;;;;;;;6.72;2.63;;;30.30;46.00;;;;;;6056415;23;20135;-77
2023/06/27 10:29:41;;;;;;;8.05;2.60;;;30.40;46.20;;;;;;6032925;23;20010;-76
2023/06/27 10:32:10;;;;;;;4.85;1.80;;;30.70;45.80;;;;;;6056149;23;20007;-77
2023/06/27 10:34:40;;;;;;;4.50;1.70;;;30.70;45.90;;;;;;6055569;23;20015;-76
2023/06/27 10:37:06;;;;;;;6.78;2.22;;;30.90;45.20;;;;;;6055377;23;20066;-77
2023/06/27 10:39:33;;;;;;;3.05;1.75;;;30.50;45.50;;;;;;6031953;23;20033;-76
2023/06/27 10:42:06;;;;;;;10.50;1.80;;;30.60;44.90;;;;;;6032226;23;20014;-77
2023/06/27 10:44:34;;;;;;;5.40;1.48;;;30.50;45.00;;;;;;6056671;23;20082;-76
2023/06/27 10:47:15;;;;;;;5.28;1.55;;;30.20;45.60;;;;;;6055815;23;20022;-77
2023/06/27 10:49:40;;;;;;;3.20;1.40;;;30.00;45.80;;;;;;6056561;23;20078;-76
2023/06/27 10:52:06;;;;;;;7.65;1.70;;;30.00;45.60;;;;;;6056108;23;20002;-76
2023/06/27 10:54:32;;;;;;;8.02;2.53;;;29.80;45.50;;;;;;6031976;23;20373;-76
2023/06/27 10:56:59;;;;;;;6.57;1.77;;;29.60;45.20;;;;;;6054328;23;20350;-77
2023/06/27 10:59:24;;;;;;;5.55;1.75;;;29.30;46.00;;;;;;6009142;23;20003;-75
2023/06/27 11:02:04;;;;;;;5.22;1.42;;;29.20;45.70;;;;;;6055531;23;20014;-76
2023/06/27 11:04:43;;;;;;;7.65;2.00;;;29.10;46.10;;;;;;6031627;23;20090;-77
2023/06/27 11:07:10;;;;;;;2.88;1.10;;;29.20;46.60;;;;;;6031971;23;20450;-76
2023/06/27 11:09:36;;;;;;;6.93;2.13;;;29.30;46.60;;;;;;6031447;23;20022;-76
2023/06/27 11:12:11;;;;;;;6.88;1.98;;;29.30;46.50;;;;;;6056509;23;20034;-76
2023/06/27 11:14:43;;;;;;;8.00;2.00;;;29.40;46.50;;;;;;6031954;23;20349;-76
2023/06/27 11:17:09;;;;;;;7.60;2.58;;;29.70;46.40;;;;;;6055743;23;20704;-76
2023/06/27 11:19:35;;;;;;;7.40;1.83;;;29.90;46.00;;;;;;6008090;23;20011;-76
2023/06/27 11:22:01;;;;;;;7.75;2.20;;;30.00;45.80;;;;;;6055902;23;20010;-76
2023/06/27 11:24:27;;;;;;;8.40;2.17;;;30.10;45.50;;;;;;6055216;23;20014;-77
2023/06/27 11:26:52;;;;;;;6.43;2.05;;;30.10;45.60;;;;;;6056522;23;20031;-77
2023/06/27 11:29:18;;;;;;;7.38;2.25;;;30.30;45.70;;;;;;6055569;23;20370;-76
2023/06/27 11:31:44;;;;;;;3.60;1.45;;;30.30;45.50;;;;;;6031071;23;20030;-76
2023/06/27 11:34:09;;;;;;;5.72;1.40;;;30.20;45.50;;;;;;6032048;23;20023;-75
2023/06/27 11:36:38;;;;;;;5.68;1.80;;;30.10;45.60;;;;;;6055399;23;20023;-76
2023/06/27 11:39:04;;;;;;;8.00;1.77;;;30.10;45.80;;;;;;6055747;23;20442;-76
2023/06/27 11:41:30;;;;;;;9.07;1.67;;;30.00;46.10;;;;;;6055803;23;20524;-76
2023/06/27 11:43:56;;;;;;;5.60;1.55;;;29.90;45.90;;;;;;6008595;23;20014;-76
2023/06/27 11:46:21;;;;;;;3.25;1.35;;;29.90;45.80;;;;;;6032191;23;20003;-75
2023/06/27 11:48:47;;;;;;;7.97;1.65;;;30.00;45.60;;;;;;6033180;23;20094;-75
2023/06/27 11:51:13;;;;;;;5.97;1.88;;;29.90;46.00;;;;;;6057030;23;20035;-75
2023/06/27 11:53:45;;;;;;;3.75;1.45;;;30.10;45.80;;;;;;6057600;23;20165;-75
2023/06/27 11:56:11;;;;;;;2.28;1.17;;;30.10;45.40;;;;;;6033429;23;20022;-76
2023/06/27 11:58:36;;;;;;;3.88;1.55;;;30.30;45.10;;;;;;6033829;23;20011;-76
2023/06/27 12:01:09;;;;;;;5.85;1.63;;;30.20;45.40;;;;;;6057370;23;20022;-76
2023/06/27 12:03:35;;;;;;;4.63;1.40;;;30.10;45.50;;;;;;6035084;23;20053;-76
2023/06/27 12:06:01;;;;;;;3.80;1.38;;;30.20;45.30;;;;;;6033674;23;20442;-76
2023/06/27 12:08:33;;;;;;;3.80;1.60;;;29.90;45.70;;;;;;6057272;23;20457;-76
2023/06/27 12:11:03;;;;;;;6.75;1.35;;;29.90;45.10;;;;;;6033676;23;20014;-77
2023/06/27 12:13:37;;;;;;;5.60;1.50;;;30.00;45.00;;;;;;6057376;23;20454;-76
2023/06/27 12:16:03;;;;;;;3.60;1.40;;;30.10;44.60;;;;;;6057154;23;20347;-76
2023/06/27 12:18:30;;;;;;;5.05;1.90;;;30.10;45.00;;;;;;6057601;23;20095;-76
2023/06/27 12:20:56;;;;;;;6.80;2.28;;;30.30;44.40;;;;;;6058091;23;20414;-76
2023/06/27 12:23:22;;;;;;;5.68;1.45;;;30.20;44.50;;;;;;6020603;23;20014;-76
2023/06/27 12:25:48;;;;;;;6.88;1.45;;;30.20;44.70;;;;;;6054681;23;20062;-75
2023/06/27 12:28:13;;;;;;;5.32;1.60;;;30.00;44.60;;;;;;6056774;23;20354;-76
2023/06/27 12:30:39;;;;;;;3.03;1.00;;;30.00;44.30;;;;;;6033452;23;20015;-75
2023/06/27 12:33:08;;;;;;;7.03;1.23;;;30.20;44.00;;;;;;6032061;23;20022;-77
2023/06/27 12:35:34;;;;;;;5.68;1.33;;;30.40;42.70;;;;;;6057423;23;20019;-75
2023/06/27 12:37:59;;;;;;;4.00;1.55;;;30.60;43.30;;;;;;6032762;23;20346;-78
2023/06/27 12:40:25;;;;;;;8.88;1.63;;;30.80;42.50;;;;;;6033486;23;20114;-77
2023/06/27 12:42:51;;;;;;;5.88;1.45;;;31.00;43.40;;;;;;6056864;23;20521;-77